Tonopah, Nevada Weather observations

Data are for observation ending at time listed.
 Day   Time    Ave.   Ave.  Ave.  Vector   Max.   Stn.    Total    Solar   Ave.  
  of    of     Air    Rel.  Wind   Wind    Wind   Baro.  Precip.   Rad.    Soil  
Year   Day     Temp.  Hum.  Speed  Dir.    Gust   Pres.                    Temp. 
2014   (PST)    F      %     mph   deg.    mph     mb.     in.     W/m2     F   
------------------------------------------------------------------------------
 353   22:20   31.6    91    4.0   121      6.8   814.4    0.00       0    33.1
 353   22:30   31.2    91    3.9   121      5.8   814.6    0.00       0    33.1
 353   22:40   30.6    92    3.7   124      5.6   814.7    0.00       0    33.1
 353   22:50   30.3    92    3.0   108      5.0   814.7    0.00       0    33.1
 353   23:00   29.9    93    3.5   121      5.2   814.7    0.00       0    33.1
 353   23:10   29.9    93    2.9   107      4.2   814.8    0.00       0    33.0
 353   23:20   29.3    94    3.3   109      4.7   814.7    0.00       0    33.0
 353   23:30   29.8    94    3.6   126      5.0   814.7    0.00       0    33.0
 353   23:40   30.0    93    4.1   120      6.5   814.5    0.00       0    33.0
 353   23:50   29.8    93    3.2   129      4.7   814.3    0.00       0    33.0
 354    0:00   29.5    94    2.5   133      5.0   814.3    0.00       0    33.0
 354    0:10   29.2    94    2.7   156      3.7   814.4    0.00       0    33.0
 354    0:20   29.2    94    3.2   119      4.8   814.4    0.00       0    33.0
 354    0:30   29.5    95    4.1   123      6.7   814.1    0.00       0    33.0
 354    0:40   30.1    94    3.8   130      5.6   814.0    0.00       0    32.9
 354    0:50   29.6    94    2.7   149      4.5   814.1    0.00       0    32.9
 354    1:00   29.9    94    3.7   138      5.7   813.9    0.00       0    32.9
 354    1:10   30.3    94    3.9   124      5.7   813.7    0.00       0    32.9
 354    1:20   30.3    94    3.8   125      6.1   813.7    0.00       0    32.9
 354    1:30   30.0    94    2.8   115      4.3   813.8    0.00       0    32.9
 354    1:40   30.1    94    2.1    92      3.4   814.1    0.00       0    32.9
 354    1:50   30.4    94    2.7   110      3.9   814.1    0.00       0    32.9
 354    2:00   30.4    94    3.9   113      5.1   814.0    0.00       0    32.9
 354    2:10   30.6    94    3.2   121      4.7   813.9    0.00       0    32.9
 354    2:20   30.6    94    2.8   121      4.2   813.8    0.00       0    32.9
 354    2:30   30.5    94    3.1   114      5.4   813.7    0.00       0    32.9
 354    2:40   30.3    94    3.6    99      5.6   813.6    0.00       0    32.9
 354    2:50   30.0    94    4.1   126      6.1   813.6    0.00       0    32.9
 354    3:00   29.9    94    3.7   125      5.6   813.7    0.00       0    32.9
 354    3:10   29.8    95    4.2    89      7.5   813.7    0.00       0    32.8
 354    3:20   29.8    95    4.0    97      6.9   813.7    0.00       0    32.8
 354    3:30   29.9    95    3.1   108      4.9   813.8    0.00       0    32.8
 354    3:40   29.8    95    3.0   103      5.3   813.8    0.00       0    32.8
 354    3:50   30.2    95    3.4   110      6.3   813.8    0.00       0    32.8
 354    4:00   30.6    95    3.0   155      6.1   813.7    0.00       0    32.8
 354    4:10   30.5    94    4.0   148      6.7   813.6    0.00       0    32.8
 354    4:20   30.3    95    3.3   149      4.8   813.7    0.00       0    32.8
 354    4:30   30.2    95    4.2   152      5.8   813.6    0.00       0    32.8
 354    4:40   30.4    95    3.8   144      6.1   813.5    0.00       0    32.8
 354    4:50   30.6    95    3.8   140      6.5   813.4    0.00       0    32.8
 354    5:00   30.7    95    1.6   122      3.4   813.4    0.00       0    32.8
 354    5:10   30.6    95    2.0   100      3.6   813.3    0.00       0    32.8
 354    5:20   30.7    95    3.0   126      5.0   813.2    0.00       0    32.8
 354    5:30   30.9    94    1.8   116      3.7   813.4    0.00       0    32.8
 354    5:40   30.9    94    1.7   123      3.9   813.5    0.00       0    32.8
 354    5:50   30.8    94    3.1   156      4.2   813.4    0.00       0    32.8
 354    6:00   31.0    94    0.8   111      2.6   813.5    0.00       0    32.8
 354    6:10   31.1    94    1.4   228      2.6   813.6    0.00       0    32.8
 354    6:20   31.0    94    1.3   241      2.4   813.6    0.00       0    32.8
 354    6:30   31.3    93    0.9   233      2.1   813.7    0.00       0    32.8
 354    6:40   31.5    93    0.0   232      0.5   813.8    0.00       0    32.8
 354    6:50   31.4    93    0.1   232      0.6   813.9    0.00       0    32.7
 354    7:00   31.3    93    0.2   233      0.8   813.9    0.00       0    32.8
 354    7:10   31.3    93    0.2   258      2.1   813.9    0.00       0    32.7
 354    7:20   31.3    94    1.7   297      3.3   814.1    0.00       6    32.8
 354    7:30   31.1    94    0.9   313      2.5   813.8    0.00      16    32.7
 354    7:40   31.0    94    1.3   164      2.7   813.7    0.00      26    32.7
 354    7:50   30.9    95    3.0   140      4.5   813.5    0.00      30    32.7
 354    8:00   31.6    93    3.2   125      5.1   813.5    0.00      35    32.7
 354    8:10   31.9    92    3.6   116      6.2   813.6    0.00      29    32.7
 354    8:20   32.2    91    4.2   132      6.6   813.6    0.00      43    32.7
 354    8:30   32.6    89    3.9   142      6.1   813.7    0.00      45    32.7
 354    8:40   32.9    88    3.2   155      5.1   813.8    0.00      39    32.7
 354    8:50   33.2    87    3.5   149      6.0   813.9    0.00      81    32.7
 354    9:00   33.7    86    1.9   191      4.2   814.1    0.00     113    32.7
 354    9:10   34.3    84    2.0   225      3.1   814.1    0.00     115    32.7
 354    9:20   35.0    82    2.2   277      4.2   814.2    0.00     121    32.7
 354    9:30   35.1    83    2.6   281      3.9   814.1    0.00     216    32.7
 354    9:40   35.4    84    2.5   275      4.5   814.3    0.00     244    32.7
 354    9:50   35.2    84    1.8   305      2.9   814.3    0.00     210    32.8
 354   10:00   35.6    84    0.9   313      2.9   814.3    0.00     274    32.8
 354   10:10   37.9    78    0.5   297      2.3   814.2    0.00     351    32.8
 354   10:20   38.9    75    1.7   349      3.4   814.4    0.00     471    32.8
 354   10:30   39.0    74    1.7    66      4.7   814.1    0.00     379    32.8
 354   10:40   37.4    78    3.0    48      6.7   814.2    0.00     253    32.8
 354   10:50   37.6    77    1.4    87      4.2   814.1    0.00     208    32.8
 354   11:00   37.3    77    3.0   136      5.0   814.0    0.00     218    32.8
 354   11:10   37.2    76    2.2   134      5.0   814.1    0.00     197    32.8
 354   11:20   36.7    77    4.1    91      6.1   813.9    0.00     156    32.8
 354   11:30   36.8    77    3.0    97      5.4   813.8    0.00     179    32.8
 354   11:40   37.2    76    2.4    70      4.1   813.7    0.00     203    32.9
 354   11:50   37.3    74    1.5   111      3.7   813.7    0.00     153    32.9
 354   12:00   37.9    74    1.1   323      4.4   813.7    0.00     251    32.9
 354   12:10   37.9    78    2.6   294      4.7   813.5    0.00     215    33.0
 354   12:20   38.0    78    0.7   273      2.3   813.4    0.00     230    33.1
 354   12:30   38.8    75    0.7   309      2.0   813.2    0.00     176    33.2
 354   12:40   38.8    71    1.3   168      4.2   813.0    0.00     188    33.2
 354   12:50   39.5    69    1.7   123      4.5   812.7    0.00     298    33.3
 354   13:00   38.9    69    3.6   144      5.5   812.4    0.00     230    33.4
 354   13:10   38.7    69    3.2   142      6.1   812.2    0.00     296    33.5
 354   13:20   39.7    71    3.7   120      6.6   812.3    0.00     312    33.5
 354   13:30   39.1    73    2.9    32      6.2   812.7    0.00     293    33.7
 354   13:40   39.1    77    4.3   309      7.3   812.8    0.00     279    33.8
 354   13:50   39.2    77    4.5   307      6.8   812.9    0.00     341    33.9
 354   14:00   38.9    77    3.3   309      5.0   812.7    0.00     226    34.0
 354   14:10   38.9    77    2.1   294      4.5   812.7    0.00     252    34.1
 354   14:20   39.4    75    1.7   262      3.1   812.7    0.00     138    34.3
 354   14:30   39.1    76    1.8   290      4.5   812.8    0.00      96    34.4
 354   14:40   38.6    78    2.5   283      4.2   812.8    0.00     114    34.5
 354   14:50   38.9    78    2.2   285      4.1   812.9    0.00     128    34.7
 354   15:00   39.2    76    0.6   273      2.4   812.7    0.00     142    34.8
 354   15:10   39.6    76    1.5   290      3.4   813.0    0.00     134    34.9
 354   15:20   39.4    76    2.3   280      3.8   813.1    0.00      77    35.0
 354   15:30   38.9    78    1.9   302      3.6   813.2    0.00      52    35.1
 354   15:40   38.6    78    1.1   330      2.7   813.3    0.00      37    35.2
 354   15:50   38.9    78    1.6   280      2.9   813.3    0.00      37    35.3
 354   16:00   38.7    79    3.1   279      4.9   813.4    0.00      34    35.3
 354   16:10   38.3    80    2.9   286      4.3   813.4    0.00      27    35.4
 354   16:20   38.0    81    3.7   289      5.4   813.5    0.00      30    35.5
 354   16:30   37.8    83    3.6   281      5.4   813.7    0.00      10    35.5
 354   16:40   37.5    84    3.1   267      4.7   813.7    0.00       0    35.5
 354   16:50   37.2    85    3.2   267      5.0   813.8    0.00       0    35.6
 354   17:00   37.1    86    1.5   263      3.5   814.0    0.00       0    35.6
 354   17:10   37.0    86    1.9   262      3.7   814.1    0.00       0    35.6
 354   17:20   36.9    86    0.4   267      1.9   814.1    0.00       0    35.6
 354   17:30   36.9    87    0.3   260      1.8   814.1    0.00       0    35.6
 354   17:40   36.7    87    0.0     0      0.0   814.1    0.00       0    35.6
 354   17:50   36.0    88    0.4   210      1.8   814.1    0.00       0    35.6
 354   18:00   36.3    86    0.4   190      2.1   814.2    0.00       0    35.6
 354   18:10   35.6    87    0.1   189      0.9   814.1    0.00       0    35.5
 354   18:20   34.6    89    0.1   189      1.2   814.1    0.00       0    35.5
 354   18:30   33.8    90    0.3   189      0.8   814.4    0.00       0    35.4
 354   18:40   33.3    89    0.2   189      1.3   814.4    0.00       0    35.4
 354   18:50   32.7    90    0.1   189      0.7   814.6    0.00       0    35.3
 354   19:00   32.7    90    0.4   189      1.8   814.8    0.00       0    35.2
 354   19:10   33.2    89    0.4   189      1.9   814.5    0.00       0    35.2
 354   19:20   33.4    90    0.2   190      0.8   814.6    0.00       0    35.1
 354   19:30   33.9    89    1.2   297      3.7   814.8    0.00       0    35.0
 354   19:40   34.7    88    3.7   299      4.9   814.9    0.00       0    34.9
 354   19:50   34.4    90    3.8   322      6.0   814.9    0.00       0    34.9
 354   20:00   34.5    91    3.8   309      5.3   814.9    0.00       0    34.8
 354   20:10   34.2    92    3.2   296      5.5   814.9    0.00       0    34.7
 354   20:20   33.9    92    1.3   306      3.0   814.8    0.00       0    34.7
 354   20:30   34.0    92    3.4   306      5.4   815.0    0.00       0    34.6
 354   20:40   34.1    91    2.2   294      4.9   815.0    0.00       0    34.6
 354   20:50   34.0    91    3.2   283      4.5   815.1    0.00       0    34.5
 354   21:00   34.1    91    3.6   278      5.3   815.3    0.00       0    34.5
 354   21:10   34.1    90    3.0   280      3.9   815.4    0.00       0    34.4
 354   21:20   34.0    90    2.9   285      4.0   815.5    0.00       0    34.4
 354   21:30   33.6    91    2.6   290      3.6   815.7    0.00       0    34.4
 354   21:40   33.6    91    2.5   291      3.9   815.8    0.00       0    34.3
 354   21:50   34.1    91    2.9   277      4.1   815.7    0.00       0    34.3
 354   22:00   34.6    90    3.4   275      4.6   815.7    0.00       0    34.2
 354   22:10   34.9    89    4.4   275      6.4   815.8    0.00       0    34.2

Return to Tonopah, Nevada graphs page.


Western Regional Climate Center,wrcc@dri.edu